Time;durP1;ratioP1;P1;durP2;ratioP2;P2;SDS_P1;SDS_P2;PMS_P1;PMS_P2;Temp;Humidity;BMP_temperature;BMP_pressure;BME280_temperature;BME280_humidity;BME280_pressure;Samples;Min_cycle;Max_cycle;Signal;HPM_P1;HPM_P2
2023/01/23 00:02:15;;;;;;;35.93;18.00;;;;;;;-145.18;100.00;46724.84;6122200;23;20037;-77
2023/01/23 00:04:40;;;;;;;36.83;17.90;;;;;;;-145.18;100.00;46720.94;6123574;23;20033;-78
2023/01/23 00:07:06;;;;;;;35.30;18.43;;;;;;;-145.18;100.00;46722.91;6123460;23;20021;-78
2023/01/23 00:09:31;;;;;;;32.97;17.10;;;;;;;-145.18;100.00;46722.91;6123623;23;20014;-78
2023/01/23 00:11:57;;;;;;;34.27;17.47;;;;;;;-145.18;100.00;46724.84;6122927;23;20013;-78
2023/01/23 00:14:22;;;;;;;39.90;17.63;;;;;;;-145.18;100.00;46724.84;6123875;23;20081;-78
2023/01/23 00:16:47;;;;;;;35.87;17.37;;;;;;;-145.18;100.00;46728.75;6123481;23;20034;-78
2023/01/23 00:19:13;;;;;;;41.73;19.30;;;;;;;-145.18;100.00;46726.81;6123418;23;20372;-78
2023/01/23 00:21:38;;;;;;;39.80;18.27;;;;;;;-145.18;100.00;46719.00;6123398;23;20081;-78
2023/01/23 00:24:04;;;;;;;38.30;17.80;;;;;;;-145.18;100.00;46722.91;6123357;23;20006;-78
2023/01/23 00:26:34;;;;;;;38.77;19.07;;;;;;;-145.18;100.00;46720.94;6123355;23;20006;-78
2023/01/23 00:28:59;;;;;;;41.80;18.35;;;;;;;-145.18;100.00;46719.00;6123513;23;20080;-78
2023/01/23 00:31:27;;;;;;;31.40;16.73;;;;;;;-145.18;100.00;46720.94;6123454;23;20056;-78
2023/01/23 00:33:55;;;;;;;36.95;19.52;;;;;;;-145.18;100.00;46724.84;6123026;23;20034;-78
2023/01/23 00:36:20;;;;;;;36.65;18.25;;;;;;;-145.18;100.00;46722.91;6123774;23;20409;-78
2023/01/23 00:38:46;;;;;;;35.47;18.73;;;;;;;-145.18;100.00;46720.94;6121462;23;20038;-79
2023/01/23 00:41:11;;;;;;;35.70;18.13;;;;;;;-145.18;100.00;46726.81;6122672;23;20283;-78
2023/01/23 00:43:37;;;;;;;37.57;18.20;;;;;;;-145.18;100.00;46719.00;6123374;23;20075;-79
2023/01/23 00:46:02;;;;;;;39.53;18.50;;;;;;;-145.18;100.00;46724.84;6123207;23;20012;-78
2023/01/23 00:48:28;;;;;;;37.60;17.10;;;;;;;-145.18;100.00;46719.00;6123131;23;20064;-79
2023/01/23 00:50:53;;;;;;;39.63;18.43;;;;;;;-145.18;100.00;46720.94;6123182;23;20041;-79
2023/01/23 00:53:19;;;;;;;35.47;18.00;;;;;;;-145.18;100.00;46724.84;6123407;23;20101;-79
2023/01/23 00:55:45;;;;;;;36.23;17.80;;;;;;;-145.18;100.00;46720.94;6123133;23;20018;-79
2023/01/23 00:58:10;;;;;;;40.30;17.23;;;;;;;-145.18;100.00;46720.94;6122747;23;20336;-79
2023/01/23 01:00:37;;;;;;;38.93;19.20;;;;;;;-145.18;100.00;46724.84;6123150;23;20029;-79
2023/01/23 01:03:03;;;;;;;35.20;18.77;;;;;;;-145.18;100.00;46722.91;6122474;23;20152;-79
2023/01/23 01:05:29;;;;;;;41.00;17.73;;;;;;;-145.18;100.00;46719.00;6122971;23;20088;-79
2023/01/23 01:07:54;;;;;;;36.43;17.57;;;;;;;-145.18;100.00;46720.94;6122684;23;20343;-78
2023/01/23 01:10:20;;;;;;;38.30;19.43;;;;;;;-145.18;100.00;46724.84;6123152;23;20056;-79
2023/01/23 01:12:45;;;;;;;46.93;19.67;;;;;;;-145.18;100.00;46720.94;6122877;23;20355;-79
2023/01/23 01:15:12;;;;;;;41.67;18.93;;;;;;;-145.18;100.00;46722.91;6121345;23;20006;-79
2023/01/23 01:17:38;;;;;;;43.27;18.80;;;;;;;-145.18;100.00;46720.94;6123104;23;20439;-79
2023/01/23 01:20:04;;;;;;;37.30;18.77;;;;;;;-145.18;100.00;46724.84;6122862;23;20232;-79
2023/01/23 01:22:30;;;;;;;38.87;18.50;;;;;;;-145.18;100.00;46720.94;6122720;23;20443;-79
2023/01/23 01:24:56;;;;;;;35.70;18.07;;;;;;;-145.18;100.00;46720.94;6122690;23;20237;-80
2023/01/23 01:27:22;;;;;;;35.43;18.57;;;;;;;-145.18;100.00;46722.91;6122866;23;20232;-79
2023/01/23 01:29:47;;;;;;;39.13;18.33;;;;;;;-145.18;100.00;46720.94;6123092;23;20010;-80
2023/01/23 01:32:13;;;;;;;34.90;17.87;;;;;;;-145.18;100.00;46720.94;6122384;23;20291;-80
2023/01/23 01:34:38;;;;;;;39.67;19.53;;;;;;;-145.18;100.00;46719.00;6121333;23;20017;-80
2023/01/23 01:37:04;;;;;;;37.33;18.70;;;;;;;-145.18;100.00;46720.94;6122501;23;20101;-80
2023/01/23 01:39:29;;;;;;;39.27;18.40;;;;;;;-145.18;100.00;46722.91;6123297;23;20021;-79
2023/01/23 01:41:54;;;;;;;37.60;18.77;;;;;;;-145.18;100.00;46719.00;6122502;23;20418;-80
2023/01/23 01:44:22;;;;;;;38.63;18.27;;;;;;;-145.18;100.00;46719.00;6122874;23;20060;-80
2023/01/23 01:46:48;;;;;;;44.23;17.97;;;;;;;-145.18;100.00;46719.00;6122509;23;20049;-80
2023/01/23 01:49:25;;;;;;;41.60;19.87;;;;;;;-145.18;100.00;46724.84;6121412;23;20241;-80
2023/01/23 01:52:03;;;;;;;39.92;19.70;;;;;;;-145.18;100.00;46722.91;6120684;23;20666;-80
2023/01/23 01:54:42;;;;;;;40.17;18.60;;;;;;;-145.18;100.00;46720.94;6122994;23;20006;-81
2023/01/23 01:57:15;;;;;;;40.28;19.25;;;;;;;-145.18;100.00;46720.94;6120546;23;20417;-80
2023/01/23 01:59:51;;;;;;;38.80;19.37;;;;;;;-145.18;100.00;46720.94;6122771;23;20006;-81
2023/01/23 02:02:24;;;;;;;46.45;19.50;;;;;;;-145.18;100.00;46717.03;6120599;23;21027;-80
2023/01/23 02:04:54;;;;;;;39.47;18.17;;;;;;;-145.18;100.00;46719.00;6122709;23;20017;-80
2023/01/23 02:07:31;;;;;;;36.50;18.67;;;;;;;-145.18;100.00;46722.91;6122513;23;20053;-80
2023/01/23 02:09:57;;;;;;;36.58;18.92;;;;;;;-145.18;100.00;46719.00;6122942;23;20010;-80
2023/01/23 02:12:23;;;;;;;39.07;18.77;;;;;;;-145.18;100.00;46719.00;6122612;23;20079;-80
2023/01/23 02:14:48;;;;;;;40.53;18.83;;;;;;;-145.18;100.00;46719.00;6122353;23;20343;-81
2023/01/23 02:17:14;;;;;;;46.27;19.23;;;;;;;-145.18;100.00;46720.94;6122232;23;20235;-81
2023/01/23 02:19:48;;;;;;;44.47;18.60;;;;;;;-145.18;100.00;46719.00;6122893;23;20008;-80
2023/01/23 02:22:33;;;;;;;38.92;19.40;;;;;;;-145.18;100.00;46719.00;6122551;23;20093;-81
2023/01/23 02:25:09;;;;;;;39.50;19.52;;;;;;;-145.18;100.00;46722.91;6120682;23;20037;-81
2023/01/23 02:27:35;;;;;;;41.05;18.33;;;;;;;-145.18;100.00;46720.94;6122203;23;20017;-80
2023/01/23 02:30:00;;;;;;;43.43;19.27;;;;;;;-145.18;100.00;46717.03;6122423;23;20383;-80
2023/01/23 02:32:26;;;;;;;43.27;18.83;;;;;;;-145.18;100.00;46720.94;6120693;23;20010;-81
2023/01/23 02:34:56;;;;;;;38.63;17.95;;;;;;;-145.18;100.00;46719.00;6122890;23;20013;-80
2023/01/23 02:37:26;;;;;;;39.10;18.92;;;;;;;-145.18;100.00;46722.91;6122700;23;20005;-80
2023/01/23 02:39:52;;;;;;;44.58;19.20;;;;;;;-145.18;100.00;46719.00;6122757;23;20002;-81
2023/01/23 02:42:20;;;;;;;41.30;19.77;;;;;;;-145.18;100.00;46722.91;6122677;23;20010;-80
2023/01/23 02:44:45;;;;;;;38.03;18.88;;;;;;;-145.18;100.00;46717.03;6122631;23;20295;-81
2023/01/23 02:47:11;;;;;;;43.37;19.27;;;;;;;-145.18;100.00;46717.03;6122165;23;20010;-81
2023/01/23 02:49:41;;;;;;;47.13;19.00;;;;;;;-145.18;100.00;46719.00;6122610;23;20432;-81
2023/01/23 02:52:08;;;;;;;39.83;19.17;;;;;;;-145.18;100.00;46719.00;6120305;23;20355;-81
2023/01/23 02:54:34;;;;;;;46.13;19.05;;;;;;;-145.18;100.00;46713.13;6122476;23;20295;-81
2023/01/23 02:56:59;;;;;;;41.87;18.50;;;;;;;-145.18;100.00;46719.00;6122239;23;19998;-81
2023/01/23 03:02:14;;;;;;;40.10;18.43;;;;;;;-145.18;100.00;46719.00;6084631;23;20022;-82
2023/01/23 03:04:40;;;;;;;40.08;20.58;;;;;;;-145.18;100.00;46719.00;6121142;23;20243;-82
2023/01/23 03:07:05;;;;;;;42.50;19.33;;;;;;;-145.18;100.00;46713.13;6124205;23;20002;-83
2023/01/23 03:09:32;;;;;;;38.73;19.10;;;;;;;-145.18;100.00;46719.00;6123972;23;20014;-82
2023/01/23 03:11:57;;;;;;;47.67;19.43;;;;;;;-145.18;100.00;46717.03;6123593;23;20013;-82
2023/01/23 03:14:23;;;;;;;41.80;20.33;;;;;;;-145.18;100.00;46715.09;6124372;23;20618;-82
2023/01/23 03:16:52;;;;;;;40.53;19.30;;;;;;;-145.18;100.00;46719.00;6146588;23;20344;-81
2023/01/23 03:19:19;;;;;;;48.50;18.90;;;;;;;-145.18;100.00;46715.09;6147528;23;20565;-82
2023/01/23 03:21:45;;;;;;;42.47;19.58;;;;;;;-145.18;100.00;46715.09;6124227;23;20264;-81
2023/01/23 03:24:12;;;;;;;39.40;18.70;;;;;;;-145.18;100.00;46713.13;6124451;23;20060;-81
2023/01/23 03:26:42;;;;;;;46.45;19.27;;;;;;;-145.18;100.00;46717.03;6123934;23;20017;-82
2023/01/23 03:32:04;;;;;;;45.72;19.15;;;;;;;-145.18;100.00;46717.03;6123981;23;20259;-81
2023/01/23 03:34:30;;;;;;;42.10;19.60;;;;;;;-145.18;100.00;46713.13;6124328;23;20316;-81
2023/01/23 03:36:55;;;;;;;47.43;19.43;;;;;;;-145.18;100.00;46717.03;6123607;23;20093;-81
2023/01/23 03:42:04;;;;;;;46.07;19.50;;;;;;;-145.18;100.00;46713.13;6122838;23;20097;-81
2023/01/23 03:44:30;;;;;;;41.90;18.33;;;;;;;-145.18;100.00;46717.03;6124117;23;20623;-81
2023/01/23 03:46:55;;;;;;;40.30;19.53;;;;;;;-145.18;100.00;46717.03;6146684;23;20018;-81
2023/01/23 03:49:21;;;;;;;46.40;19.63;;;;;;;-145.18;100.00;46719.00;6147007;23;20006;-81
2023/01/23 03:51:46;;;;;;;46.57;18.83;;;;;;;-145.18;100.00;46715.09;6123698;23;20013;-81
2023/01/23 03:54:13;;;;;;;37.63;20.00;;;;;;;-145.18;100.00;46717.03;6124665;23;20371;-81
2023/01/23 03:56:39;;;;;;;39.35;19.20;;;;;;;-145.18;100.00;46717.03;6123349;23;20006;-81
2023/01/23 03:59:04;;;;;;;47.20;20.10;;;;;;;-145.18;100.00;46719.00;6123977;23;20077;-81
2023/01/23 04:01:30;;;;;;;40.63;19.60;;;;;;;-145.18;100.00;46713.13;6124009;23;20002;-81
2023/01/23 04:03:55;;;;;;;43.23;20.70;;;;;;;-145.18;100.00;46713.13;6121764;23;20531;-81
2023/01/23 04:06:21;;;;;;;39.63;19.03;;;;;;;-145.18;100.00;46719.00;6122443;23;20014;-82
2023/01/23 04:08:46;;;;;;;39.03;19.07;;;;;;;-145.18;100.00;46713.13;6123542;23;20014;-82
2023/01/23 04:11:12;;;;;;;43.37;19.50;;;;;;;-145.18;100.00;46715.09;6123897;23;20039;-82
2023/01/23 04:13:37;;;;;;;45.33;20.10;;;;;;;-145.18;100.00;46719.00;6122813;23;20037;-82
2023/01/23 04:16:04;;;;;;;40.27;19.33;;;;;;;-145.18;100.00;46717.03;6123848;23;20085;-82
2023/01/23 04:18:30;;;;;;;43.08;19.40;;;;;;;-145.18;100.00;46717.03;6123562;23;20060;-82
2023/01/23 04:20:56;;;;;;;37.13;19.37;;;;;;;-145.18;100.00;46715.09;6123609;23;20010;-82
2023/01/23 04:23:22;;;;;;;42.90;19.37;;;;;;;-145.18;100.00;46719.00;6123502;23;20502;-82
2023/01/23 04:25:49;;;;;;;43.70;20.57;;;;;;;-145.18;100.00;46717.03;6123789;23;20240;-82
2023/01/23 04:28:15;;;;;;;39.73;20.07;;;;;;;-145.18;100.00;46715.09;6123402;23;20236;-83
2023/01/23 04:30:40;;;;;;;44.50;20.67;;;;;;;-145.18;100.00;46717.03;6123154;23;20327;-83
2023/01/23 04:33:06;;;;;;;42.93;19.90;;;;;;;-145.18;100.00;46715.09;6123607;23;20021;-83
2023/01/23 04:35:32;;;;;;;48.43;20.00;;;;;;;-145.18;100.00;46715.09;6123866;23;20010;-83
2023/01/23 04:37:57;;;;;;;48.47;21.57;;;;;;;-145.18;100.00;46713.13;6123316;23;20016;-83
2023/01/23 04:40:22;;;;;;;43.30;20.70;;;;;;;-145.18;100.00;46717.03;6122167;23;20435;-83
2023/01/23 04:42:48;;;;;;;46.10;20.77;;;;;;;-145.18;100.00;46717.03;6123115;23;20006;-83
2023/01/23 04:45:13;;;;;;;45.37;20.80;;;;;;;-145.18;100.00;46715.09;6123646;23;20010;-83
2023/01/23 04:47:38;;;;;;;44.30;20.70;;;;;;;-145.18;100.00;46715.09;6123066;23;20566;-83
2023/01/23 04:50:04;;;;;;;45.23;21.40;;;;;;;-145.18;100.00;46715.09;6123833;23;20010;-83
2023/01/23 04:52:30;;;;;;;49.90;21.20;;;;;;;-145.18;100.00;46713.13;6123040;23;20020;-83
2023/01/23 04:54:55;;;;;;;55.33;21.47;;;;;;;-145.18;100.00;46717.03;6123342;23;20431;-84
2023/01/23 04:57:20;;;;;;;49.27;22.57;;;;;;;-145.18;100.00;46717.03;6121778;23;20010;-82
2023/01/23 04:59:46;;;;;;;45.20;20.47;;;;;;;-145.18;100.00;46711.19;6123301;23;20768;-82
2023/01/23 05:02:11;;;;;;;54.07;21.27;;;;;;;-145.18;100.00;46717.03;6121509;23;20056;-82
2023/01/23 05:04:37;;;;;;;50.27;22.40;;;;;;;-145.18;100.00;46713.13;6122889;23;20081;-82
2023/01/23 05:07:02;;;;;;;50.63;22.23;;;;;;;-145.18;100.00;46711.19;6122704;23;20435;-82
2023/01/23 05:09:28;;;;;;;58.03;22.33;;;;;;;-145.18;100.00;46711.19;6123051;23;20092;-81
2023/01/23 05:11:53;;;;;;;47.53;21.77;;;;;;;-145.18;100.00;46717.03;6122682;23;20014;-82
2023/01/23 05:14:20;;;;;;;51.07;23.03;;;;;;;-145.18;100.00;46709.22;6123139;23;20042;-82
2023/01/23 05:16:46;;;;;;;48.95;21.77;;;;;;;-145.18;100.00;46707.28;6122975;23;20013;-82
2023/01/23 05:19:12;;;;;;;52.87;23.40;;;;;;;-145.18;100.00;46709.22;6122775;23;20010;-82
2023/01/23 05:21:37;;;;;;;53.03;23.37;;;;;;;-145.18;100.00;46711.19;6122668;23;20014;-83
2023/01/23 05:24:03;;;;;;;57.63;23.57;;;;;;;-145.18;100.00;46713.13;6123372;23;20086;-83
2023/01/23 05:26:28;;;;;;;54.43;23.60;;;;;;;-145.18;100.00;46713.13;6123210;23;20042;-83
2023/01/23 05:28:53;;;;;;;48.17;21.63;;;;;;;-145.18;100.00;46715.09;6122964;23;20129;-81
2023/01/23 05:31:19;;;;;;;54.03;23.43;;;;;;;-145.18;100.00;46717.03;6122981;23;20037;-83
2023/01/23 05:33:44;;;;;;;53.97;22.30;;;;;;;-145.18;100.00;46711.19;6122776;23;20077;-84
2023/01/23 05:36:10;;;;;;;49.97;22.77;;;;;;;-145.18;100.00;46715.09;6123311;23;20010;-84
2023/01/23 05:38:35;;;;;;;54.00;23.10;;;;;;;-145.18;100.00;46715.09;6121424;23;20061;-84
2023/01/23 05:41:01;;;;;;;58.37;23.80;;;;;;;-145.18;100.00;46713.13;6123327;23;20008;-84
2023/01/23 05:43:26;;;;;;;59.37;24.17;;;;;;;-145.18;100.00;46715.09;6123133;23;20017;-84
2023/01/23 05:45:52;;;;;;;55.07;24.03;;;;;;;-145.18;100.00;46713.13;6121167;23;20379;-84
2023/01/23 05:48:17;;;;;;;58.67;23.97;;;;;;;-145.18;100.00;46715.09;6122746;23;20040;-83
2023/01/23 05:50:42;;;;;;;59.20;23.23;;;;;;;-145.18;100.00;46709.22;6122903;23;20010;-84
2023/01/23 05:53:08;;;;;;;54.63;23.73;;;;;;;-145.18;100.00;46713.13;6122902;23;20016;-83
2023/01/23 05:55:33;;;;;;;60.83;24.20;;;;;;;-145.18;100.00;46715.09;6122080;23;20014;-84
2023/01/23 05:57:58;;;;;;;64.03;23.97;;;;;;;-145.18;100.00;46709.22;6115098;23;20005;-83
2023/01/23 06:00:24;;;;;;;53.50;23.67;;;;;;;-145.18;100.00;46715.09;6122789;23;20016;-84
2023/01/23 06:02:49;;;;;;;51.57;23.80;;;;;;;-145.18;100.00;46711.19;6125307;23;20022;-85
2023/01/23 06:05:15;;;;;;;56.77;23.30;;;;;;;-145.18;100.00;46719.00;6122923;23;20045;-86
2023/01/23 06:07:40;;;;;;;57.67;24.30;;;;;;;-145.18;100.00;46715.09;6121674;23;20060;-86
2023/01/23 06:10:07;;;;;;;61.97;23.40;;;;;;;-145.18;100.00;46715.09;6122609;23;20097;-86
2023/01/23 06:12:32;;;;;;;57.17;23.87;;;;;;;-145.18;100.00;46711.19;6121568;23;20606;-88
2023/01/23 06:14:58;;;;;;;63.17;25.90;;;;;;;-145.18;100.00;46711.19;6121747;23;20073;-87
2023/01/23 06:17:23;;;;;;;59.67;24.87;;;;;;;-145.18;100.00;46711.19;6122590;23;20338;-86
2023/01/23 06:19:49;;;;;;;54.83;24.17;;;;;;;-145.18;100.00;46713.13;6122764;23;20403;-86
2023/01/23 06:22:14;;;;;;;56.47;24.80;;;;;;;-145.18;100.00;46711.19;6121403;23;20574;-85
2023/01/23 06:24:39;;;;;;;58.90;23.93;;;;;;;-145.18;100.00;46713.13;6122596;23;20002;-84
2023/01/23 06:27:08;;;;;;;57.33;23.33;;;;;;;-145.18;100.00;46713.13;6123200;23;20010;-82
2023/01/23 06:29:34;;;;;;;59.05;24.65;;;;;;;-145.18;100.00;46715.09;6122814;23;20021;-87
2023/01/23 06:32:00;;;;;;;57.07;24.50;;;;;;;-145.18;100.00;46713.13;6122620;23;20022;-88
2023/01/23 06:34:25;;;;;;;51.47;22.70;;;;;;;-145.18;100.00;46713.13;6122611;23;20283;-87
2023/01/23 06:36:51;;;;;;;58.50;23.30;;;;;;;-145.18;100.00;46717.03;6123391;23;20078;-87
2023/01/23 06:39:16;;;;;;;63.50;23.13;;;;;;;-145.18;100.00;46720.94;6125013;23;20006;-87
2023/01/23 06:41:42;;;;;;;56.07;23.80;;;;;;;-145.18;100.00;46715.09;6124566;23;20014;-87
2023/01/23 06:44:07;;;;;;;53.37;23.67;;;;;;;-145.18;100.00;46717.03;6124836;23;20017;-87
2023/01/23 06:46:33;;;;;;;50.20;22.87;;;;;;;-145.18;100.00;46717.03;6124689;23;20010;-86
2023/01/23 06:48:58;;;;;;;54.90;23.57;;;;;;;-145.18;100.00;46711.19;6124617;23;20010;-87
2023/01/23 06:51:24;;;;;;;50.93;23.90;;;;;;;-145.18;100.00;46715.09;6124873;23;20010;-86
2023/01/23 06:53:49;;;;;;;59.27;25.10;;;;;;;-145.18;100.00;46713.13;6124422;23;20469;-86
2023/01/23 06:56:15;;;;;;;49.93;23.40;;;;;;;-145.18;100.00;46715.09;6122889;23;20079;-87
2023/01/23 06:58:44;;;;;;;61.57;24.80;;;;;;;-145.18;100.00;46717.03;6123649;23;20006;-86
2023/01/23 07:01:14;;;;;;;55.13;24.77;;;;;;;-145.18;100.00;46711.19;6124855;23;20010;-86
2023/01/23 07:03:41;;;;;;;56.87;25.30;;;;;;;-145.18;100.00;46711.19;6123812;23;20244;-85
2023/01/23 07:06:07;;;;;;;55.20;23.63;;;;;;;-145.18;100.00;46715.09;6124627;23;20236;-85
2023/01/23 07:08:34;;;;;;;54.63;23.00;;;;;;;-145.18;100.00;46717.03;6123703;23;20260;-85
2023/01/23 07:11:00;;;;;;;53.40;24.63;;;;;;;-145.18;100.00;46717.03;6124237;23;20645;-85
2023/01/23 07:13:25;;;;;;;58.80;24.65;;;;;;;-145.18;100.00;46713.13;6124305;23;20573;-85
2023/01/23 07:15:51;;;;;;;59.47;23.70;;;;;;;-145.18;100.00;46713.13;6123858;23;20021;-85
2023/01/23 07:18:16;;;;;;;52.90;24.13;;;;;;;-145.18;100.00;46709.22;6124073;23;20018;-84
2023/01/23 07:20:46;;;;;;;58.20;24.27;;;;;;;-145.18;100.00;46715.09;6122727;23;20076;-85
2023/01/23 07:23:12;;;;;;;54.47;24.67;;;;;;;-145.18;100.00;46715.09;6124351;23;20014;-84
2023/01/23 07:25:38;;;;;;;59.67;24.80;;;;;;;-145.18;100.00;46711.19;6124428;23;20271;-84
2023/01/23 07:28:04;;;;;;;56.13;24.80;;;;;;;-145.18;100.00;46715.09;6124239;23;20470;-83
2023/01/23 07:30:30;;;;;;;53.35;23.63;;;;;;;-145.18;100.00;46713.13;6123055;23;20220;-84
2023/01/23 07:32:57;;;;;;;57.30;24.37;;;;;;;-145.18;100.00;46715.09;6122976;23;20427;-83
2023/01/23 07:35:23;;;;;;;54.87;24.23;;;;;;;-145.18;100.00;46711.19;6122018;23;20241;-83
2023/01/23 07:37:48;;;;;;;55.33;24.77;;;;;;;-145.18;100.00;46715.09;6117110;23;20697;-84
2023/01/23 07:40:14;;;;;;;54.40;24.77;;;;;;;-145.18;100.00;46717.03;6123818;23;20042;-84
2023/01/23 07:42:40;;;;;;;53.03;24.43;;;;;;;-145.18;100.00;46707.28;6123218;23;20057;-83
2023/01/23 07:45:07;;;;;;;63.03;27.25;;;;;;;-145.18;100.00;46717.03;6122401;23;20436;-83
2023/01/23 07:47:33;;;;;;;53.50;25.42;;;;;;;-145.18;100.00;46713.13;6123832;23;20336;-84
2023/01/23 07:49:59;;;;;;;57.25;25.25;;;;;;;-145.18;100.00;46713.13;6123516;23;20006;-83
2023/01/23 07:52:24;;;;;;;59.33;25.07;;;;;;;-145.18;100.00;46715.09;6121277;23;20017;-83
2023/01/23 07:54:49;;;;;;;60.13;26.03;;;;;;;-145.18;100.00;46715.09;6123438;23;20045;-84
2023/01/23 07:57:15;;;;;;;64.03;25.97;;;;;;;-145.18;100.00;46713.13;6123934;23;20044;-83
2023/01/23 07:59:40;;;;;;;57.30;26.80;;;;;;;-145.18;100.00;46713.13;6123471;23;20006;-86
2023/01/23 08:02:08;;;;;;;61.63;26.60;;;;;;;-145.18;100.00;46711.19;6123544;23;20079;-86
2023/01/23 08:04:34;;;;;;;55.67;25.58;;;;;;;-145.18;100.00;46713.13;6123747;23;20013;-85
2023/01/23 08:06:59;;;;;;;60.27;26.50;;;;;;;-145.18;100.00;46717.03;6122724;23;20010;-85
2023/01/23 08:09:24;;;;;;;61.10;25.47;;;;;;;-145.18;100.00;46711.19;6123533;23;20010;-85
2023/01/23 08:11:51;;;;;;;61.47;28.00;;;;;;;-145.18;100.00;46715.09;6123378;23;20010;-84
2023/01/23 08:14:16;;;;;;;54.23;27.33;;;;;;;-145.18;100.00;46711.19;6122116;23;20450;-85
2023/01/23 08:16:42;;;;;;;57.07;26.03;;;;;;;-145.18;100.00;46711.19;6123150;23;20307;-84
2023/01/23 08:19:07;;;;;;;65.47;26.93;;;;;;;-145.18;100.00;46709.22;6123501;23;20022;-84
2023/01/23 08:21:33;;;;;;;62.20;27.57;;;;;;;-145.18;100.00;46715.09;6123445;23;20432;-83
2023/01/23 08:24:01;;;;;;;57.83;26.20;;;;;;;-145.18;100.00;46711.19;6123142;23;20013;-84
2023/01/23 08:26:26;;;;;;;53.03;24.63;;;;;;;-145.18;100.00;46711.19;6123353;23;20009;-84
2023/01/23 08:28:52;;;;;;;56.40;25.20;;;;;;;-145.18;100.00;46715.09;6123071;23;20229;-83
2023/01/23 08:31:17;;;;;;;60.20;26.23;;;;;;;-145.18;100.00;46713.13;6121966;23;20017;-83
2023/01/23 08:33:43;;;;;;;58.93;27.30;;;;;;;-145.18;100.00;46715.09;6122725;23;20376;-82
2023/01/23 08:36:11;;;;;;;57.70;26.67;;;;;;;-145.18;100.00;46713.13;6123537;23;20032;-82
2023/01/23 08:38:36;;;;;;;65.88;27.05;;;;;;;-145.18;100.00;46709.22;6123112;23;20014;-82
2023/01/23 08:41:02;;;;;;;67.13;27.43;;;;;;;-145.18;100.00;46709.22;6122594;23;20383;-82
2023/01/23 08:43:28;;;;;;;61.63;26.70;;;;;;;-145.18;100.00;46711.19;6123072;23;20010;-81
2023/01/23 08:45:56;;;;;;;58.60;26.80;;;;;;;-145.18;100.00;46713.13;6122776;23;20477;-81
2023/01/23 08:48:23;;;;;;;55.43;26.53;;;;;;;-145.18;100.00;46709.22;6123284;23;20077;-81
2023/01/23 08:50:49;;;;;;;55.80;25.30;;;;;;;-145.18;100.00;46709.22;6122812;23;20244;-81
2023/01/23 08:53:15;;;;;;;63.90;26.50;;;;;;;-145.18;100.00;46711.19;6123030;23;20232;-81
2023/01/23 08:55:41;;;;;;;53.50;25.17;;;;;;;-145.18;100.00;46707.28;6123077;23;20232;-81
2023/01/23 08:58:08;;;;;;;58.77;27.03;;;;;;;-145.18;100.00;46709.22;6121157;23;20105;-81
2023/01/23 09:00:34;;;;;;;58.07;27.43;;;;;;;-145.18;100.00;46705.31;6122714;23;20062;-81
2023/01/23 09:03:01;;;;;;;55.47;27.03;;;;;;;-145.18;100.00;46707.28;6122502;23;20736;-81
2023/01/23 09:05:28;;;;;;;56.83;27.07;;;;;;;-145.18;100.00;46705.31;6122672;23;20229;-81
2023/01/23 09:07:54;;;;;;;56.53;27.13;;;;;;;-145.18;100.00;46705.31;6122695;23;20225;-80
2023/01/23 09:10:19;;;;;;;56.97;27.13;;;;;;;-145.18;100.00;46705.31;6122910;23;20236;-80
2023/01/23 09:12:45;;;;;;;49.90;24.73;;;;;;;-145.18;100.00;46703.38;6122478;23;20243;-80
2023/01/23 09:15:10;;;;;;;58.13;27.40;;;;;;;-145.18;100.00;46703.38;6122935;23;20006;-80
2023/01/23 09:17:36;;;;;;;52.70;26.30;;;;;;;-145.18;100.00;46701.41;6122701;23;20018;-80
2023/01/23 09:20:04;;;;;;;55.83;26.87;;;;;;;-145.18;100.00;46703.38;6122549;23;20018;-80
2023/01/23 09:22:30;;;;;;;52.93;25.50;;;;;;;-145.18;100.00;46707.28;6122685;23;20002;-80
2023/01/23 09:24:56;;;;;;;53.30;24.90;;;;;;;-145.18;100.00;46703.38;6120390;23;20298;-80
2023/01/23 09:27:21;;;;;;;60.70;26.43;;;;;;;-145.18;100.00;46699.47;6121410;23;20229;-80
2023/01/23 09:29:48;;;;;;;55.17;25.67;;;;;;;-145.18;100.00;46699.47;6122378;23;20010;-80
2023/01/23 09:32:13;;;;;;;52.43;25.50;;;;;;;-145.18;100.00;46703.38;6120903;23;20193;-79
2023/01/23 09:34:38;;;;;;;54.20;25.17;;;;;;;-145.18;100.00;46699.47;6121823;23;20240;-79
2023/01/23 09:37:04;;;;;;;52.20;27.27;;;;;;;-145.18;100.00;46701.41;6121145;23;20417;-79
2023/01/23 09:39:30;;;;;;;52.00;25.27;;;;;;;-145.18;100.00;46701.41;6122500;23;20014;-79
2023/01/23 09:41:55;;;;;;;51.03;26.13;;;;;;;-145.18;100.00;46701.41;6122538;23;20002;-79
2023/01/23 09:44:59;;;;;;;55.87;26.70;;;;;;;-145.18;100.00;46699.47;6122526;23;20447;-78
2023/01/23 09:47:39;;;;;;;48.17;24.93;;;;;;;-145.18;100.00;46703.38;6061538;23;20003;-78
2023/01/23 09:50:10;;;;;;;58.80;27.10;;;;;;;-145.18;100.00;46697.50;6117322;23;20240;-77
2023/01/23 09:52:43;;;;;;;46.27;25.27;;;;;;;-145.18;100.00;46703.38;6121551;23;20343;-77
2023/01/23 09:55:26;;;;;;;55.63;25.87;;;;;;;-145.18;100.00;46701.41;6122868;23;20275;-76
2023/01/23 09:57:55;;;;;;;49.77;24.80;;;;;;;-145.18;100.00;46703.38;6122260;23;20236;-76
2023/01/23 10:00:32;;;;;;;52.13;25.23;;;;;;;-145.18;100.00;46699.47;6122737;23;20232;-76
2023/01/23 10:03:03;;;;;;;48.83;25.73;;;;;;;-145.18;100.00;46705.31;6121822;23;20657;-76
2023/01/23 10:05:54;;;;;;;53.70;28.27;;;;;;;-145.18;100.00;46705.31;6122815;23;20224;-76
2023/01/23 10:08:50;;;;;;;49.73;24.87;;;;;;;-145.18;100.00;46705.31;6094136;23;20239;-76
2023/01/23 10:12:03;;;;;;;49.60;25.77;;;;;;;-145.18;100.00;46703.38;6122370;23;20244;-76
2023/01/23 10:14:47;;;;;;;43.20;23.80;;;;;;;-145.18;100.00;46703.38;6088627;23;20251;-76
2023/01/23 10:17:36;;;;;;;51.57;24.17;;;;;;;-145.18;100.00;46707.28;6122834;23;20307;-76
2023/01/23 10:20:01;;;;;;;52.00;24.43;;;;;;;-145.18;100.00;46709.22;6122161;23;20642;-76
2023/01/23 10:22:56;;;;;;;50.70;25.10;;;;;;;-145.18;100.00;46707.28;6121419;23;20231;-76
2023/01/23 10:25:25;;;;;;;42.27;23.83;;;;;;;-145.18;100.00;46709.22;6122545;23;20040;-76
2023/01/23 10:27:54;;;;;;;42.73;23.03;;;;;;;-145.18;100.00;46703.38;6122240;23;20274;-76
2023/01/23 10:30:30;;;;;;;44.50;24.03;;;;;;;-145.18;100.00;46711.19;6122410;23;20272;-76
2023/01/23 10:32:58;;;;;;;44.83;23.42;;;;;;;-145.18;100.00;46713.13;6122156;23;20270;-75
2023/01/23 10:35:31;;;;;;;43.20;23.57;;;;;;;-145.18;100.00;46709.22;6122348;23;19999;-75
2023/01/23 10:38:33;;;;;;;44.33;23.23;;;;;;;-145.18;100.00;46709.22;6122359;23;20688;-75
2023/01/23 10:41:14;;;;;;;44.53;23.00;;;;;;;-145.18;100.00;46705.31;6122697;23;20604;-75
2023/01/23 10:43:48;;;;;;;40.43;22.67;;;;;;;-145.18;100.00;46701.41;6121534;23;20681;-75
2023/01/23 10:46:19;;;;;;;44.60;22.60;;;;;;;-145.18;100.00;46705.31;6122557;23;20225;-75
2023/01/23 10:48:44;;;;;;;43.93;22.73;;;;;;;-145.18;100.00;46701.41;6121740;23;20558;-75
2023/01/23 10:51:31;;;;;;;42.00;22.40;;;;;;;-145.18;100.00;46701.41;6122669;23;20248;-76
2023/01/23 10:54:19;;;;;;;44.67;21.43;;;;;;;-145.18;100.00;46695.56;6121940;23;20002;-76
2023/01/23 10:57:03;;;;;;;38.67;21.33;;;;;;;-145.18;100.00;46697.50;6121927;23;20310;-76
2023/01/23 10:59:36;;;;;;;39.27;21.57;;;;;;;-145.18;100.00;46691.66;6120542;23;20295;-76
2023/01/23 11:02:13;;;;;;;40.57;21.80;;;;;;;-145.18;100.00;46693.59;6125096;23;20239;-76
2023/01/23 11:04:40;;;;;;;39.87;21.73;;;;;;;-145.18;100.00;46687.75;6151338;23;20264;-76
2023/01/23 11:07:19;;;;;;;38.90;22.30;;;;;;;-145.18;100.00;46681.88;6151778;23;20239;-76